sensor_id;sensor_type;location;lat;lon;timestamp;P1;durP1;ratioP1;P2;durP2;ratioP2
19341;SDS011;9807;48.258;12.690;2023-07-13T00:00:27;6.80;;;4.47;;
19341;SDS011;9807;48.258;12.690;2023-07-13T00:02:53;7.57;;;4.40;;
19341;SDS011;9807;48.258;12.690;2023-07-13T00:05:19;9.47;;;4.70;;
19341;SDS011;9807;48.258;12.690;2023-07-13T00:07:47;7.70;;;4.33;;
19341;SDS011;9807;48.258;12.690;2023-07-13T00:10:14;6.80;;;3.60;;
19341;SDS011;9807;48.258;12.690;2023-07-13T00:12:40;5.63;;;3.50;;
19341;SDS011;9807;48.258;12.690;2023-07-13T00:15:07;6.30;;;3.40;;
19341;SDS011;9807;48.258;12.690;2023-07-13T00:17:38;5.73;;;3.27;;
19341;SDS011;9807;48.258;12.690;2023-07-13T00:20:05;7.50;;;3.63;;
19341;SDS011;9807;48.258;12.690;2023-07-13T00:22:32;3.80;;;3.07;;
19341;SDS011;9807;48.258;12.690;2023-07-13T00:24:58;3.90;;;3.03;;
19341;SDS011;9807;48.258;12.690;2023-07-13T00:27:24;9.53;;;3.77;;
19341;SDS011;9807;48.258;12.690;2023-07-13T00:29:54;6.10;;;4.03;;
19341;SDS011;9807;48.258;12.690;2023-07-13T00:32:20;10.10;;;4.07;;
19341;SDS011;9807;48.258;12.690;2023-07-13T00:34:46;9.67;;;4.27;;
19341;SDS011;9807;48.258;12.690;2023-07-13T00:37:12;9.23;;;4.60;;
19341;SDS011;9807;48.258;12.690;2023-07-13T00:39:38;6.20;;;3.87;;
19341;SDS011;9807;48.258;12.690;2023-07-13T00:42:04;9.40;;;4.17;;
19341;SDS011;9807;48.258;12.690;2023-07-13T00:44:30;4.83;;;3.80;;
19341;SDS011;9807;48.258;12.690;2023-07-13T00:46:56;12.47;;;4.17;;
19341;SDS011;9807;48.258;12.690;2023-07-13T00:49:24;15.77;;;3.90;;
19341;SDS011;9807;48.258;12.690;2023-07-13T00:51:56;3.57;;;2.87;;
19341;SDS011;9807;48.258;12.690;2023-07-13T00:54:28;7.17;;;3.50;;
19341;SDS011;9807;48.258;12.690;2023-07-13T00:56:59;9.27;;;3.87;;
19341;SDS011;9807;48.258;12.690;2023-07-13T00:59:27;10.03;;;4.33;;
19341;SDS011;9807;48.258;12.690;2023-07-13T01:01:53;6.70;;;3.00;;
19341;SDS011;9807;48.258;12.690;2023-07-13T01:04:19;4.00;;;2.60;;
19341;SDS011;9807;48.258;12.690;2023-07-13T01:06:45;4.23;;;2.60;;
19341;SDS011;9807;48.258;12.690;2023-07-13T01:09:12;5.30;;;2.40;;
19341;SDS011;9807;48.258;12.690;2023-07-13T01:11:40;3.43;;;2.90;;
19341;SDS011;9807;48.258;12.690;2023-07-13T01:14:07;7.37;;;3.93;;
19341;SDS011;9807;48.258;12.690;2023-07-13T01:16:34;9.07;;;3.73;;
19341;SDS011;9807;48.258;12.690;2023-07-13T01:19:01;9.57;;;4.57;;
19341;SDS011;9807;48.258;12.690;2023-07-13T01:21:34;7.97;;;4.53;;
19341;SDS011;9807;48.258;12.690;2023-07-13T01:23:59;5.27;;;3.10;;
19341;SDS011;9807;48.258;12.690;2023-07-13T01:26:27;5.73;;;2.67;;
19341;SDS011;9807;48.258;12.690;2023-07-13T01:28:52;7.07;;;3.03;;
19341;SDS011;9807;48.258;12.690;2023-07-13T01:31:20;9.67;;;4.07;;
19341;SDS011;9807;48.258;12.690;2023-07-13T01:33:46;9.83;;;4.17;;
19341;SDS011;9807;48.258;12.690;2023-07-13T01:36:11;10.23;;;3.80;;
19341;SDS011;9807;48.258;12.690;2023-07-13T01:38:37;11.97;;;4.40;;
19341;SDS011;9807;48.258;12.690;2023-07-13T01:41:03;12.20;;;4.43;;
19341;SDS011;9807;48.258;12.690;2023-07-13T01:43:28;8.53;;;3.37;;
19341;SDS011;9807;48.258;12.690;2023-07-13T01:45:54;8.43;;;3.87;;
19341;SDS011;9807;48.258;12.690;2023-07-13T01:48:20;7.63;;;3.30;;
19341;SDS011;9807;48.258;12.690;2023-07-13T01:50:47;7.33;;;3.33;;
19341;SDS011;9807;48.258;12.690;2023-07-13T01:53:13;7.60;;;3.70;;
19341;SDS011;9807;48.258;12.690;2023-07-13T01:55:39;8.60;;;4.13;;
19341;SDS011;9807;48.258;12.690;2023-07-13T01:58:05;5.03;;;4.07;;
19341;SDS011;9807;48.258;12.690;2023-07-13T02:00:31;6.37;;;3.27;;
19341;SDS011;9807;48.258;12.690;2023-07-13T02:02:58;5.60;;;3.23;;
19341;SDS011;9807;48.258;12.690;2023-07-13T02:05:25;5.20;;;3.00;;
19341;SDS011;9807;48.258;12.690;2023-07-13T02:07:50;4.97;;;3.20;;
19341;SDS011;9807;48.258;12.690;2023-07-13T02:10:17;5.77;;;2.73;;
19341;SDS011;9807;48.258;12.690;2023-07-13T02:12:44;3.53;;;2.33;;
19341;SDS011;9807;48.258;12.690;2023-07-13T02:15:10;9.80;;;4.27;;
19341;SDS011;9807;48.258;12.690;2023-07-13T02:17:36;7.80;;;4.53;;
19341;SDS011;9807;48.258;12.690;2023-07-13T02:20:03;17.80;;;4.57;;
19341;SDS011;9807;48.258;12.690;2023-07-13T02:22:29;17.30;;;5.03;;
19341;SDS011;9807;48.258;12.690;2023-07-13T02:24:55;9.23;;;4.53;;
19341;SDS011;9807;48.258;12.690;2023-07-13T02:27:21;10.43;;;4.73;;
19341;SDS011;9807;48.258;12.690;2023-07-13T02:29:46;8.17;;;4.80;;
19341;SDS011;9807;48.258;12.690;2023-07-13T02:32:12;6.30;;;3.93;;
19341;SDS011;9807;48.258;12.690;2023-07-13T02:34:38;4.40;;;3.70;;
19341;SDS011;9807;48.258;12.690;2023-07-13T02:37:07;5.20;;;2.70;;
19341;SDS011;9807;48.258;12.690;2023-07-13T02:39:33;4.17;;;3.17;;
19341;SDS011;9807;48.258;12.690;2023-07-13T02:41:59;3.90;;;2.87;;
19341;SDS011;9807;48.258;12.690;2023-07-13T02:44:25;2.57;;;2.27;;
19341;SDS011;9807;48.258;12.690;2023-07-13T02:46:52;4.47;;;2.60;;
19341;SDS011;9807;48.258;12.690;2023-07-13T02:49:17;4.80;;;2.53;;
19341;SDS011;9807;48.258;12.690;2023-07-13T02:51:43;2.90;;;2.40;;
19341;SDS011;9807;48.258;12.690;2023-07-13T02:54:09;4.03;;;2.67;;
19341;SDS011;9807;48.258;12.690;2023-07-13T02:56:36;3.97;;;2.30;;
19341;SDS011;9807;48.258;12.690;2023-07-13T02:59:04;6.27;;;2.67;;
19341;SDS011;9807;48.258;12.690;2023-07-13T03:01:29;6.47;;;2.60;;
19341;SDS011;9807;48.258;12.690;2023-07-13T03:03:58;5.10;;;3.00;;
19341;SDS011;9807;48.258;12.690;2023-07-13T03:06:24;6.50;;;3.10;;
19341;SDS011;9807;48.258;12.690;2023-07-13T03:08:49;7.33;;;3.17;;
19341;SDS011;9807;48.258;12.690;2023-07-13T03:11:16;3.20;;;2.80;;
19341;SDS011;9807;48.258;12.690;2023-07-13T03:13:43;5.80;;;3.13;;
19341;SDS011;9807;48.258;12.690;2023-07-13T03:16:09;10.33;;;5.03;;
19341;SDS011;9807;48.258;12.690;2023-07-13T03:18:35;6.43;;;3.90;;
19341;SDS011;9807;48.258;12.690;2023-07-13T03:21:02;10.97;;;5.20;;
19341;SDS011;9807;48.258;12.690;2023-07-13T03:23:28;11.73;;;5.73;;
19341;SDS011;9807;48.258;12.690;2023-07-13T03:26:27;16.67;;;4.90;;
19341;SDS011;9807;48.258;12.690;2023-07-13T03:28:46;7.70;;;4.20;;
19341;SDS011;9807;48.258;12.690;2023-07-13T03:31:13;5.80;;;3.83;;
19341;SDS011;9807;48.258;12.690;2023-07-13T03:33:44;8.90;;;4.80;;
19341;SDS011;9807;48.258;12.690;2023-07-13T03:36:16;12.33;;;3.73;;
19341;SDS011;9807;48.258;12.690;2023-07-13T03:38:47;8.73;;;4.23;;
19341;SDS011;9807;48.258;12.690;2023-07-13T03:41:18;5.13;;;2.80;;
19341;SDS011;9807;48.258;12.690;2023-07-13T03:43:44;7.87;;;3.63;;
19341;SDS011;9807;48.258;12.690;2023-07-13T03:46:11;6.40;;;2.83;;
19341;SDS011;9807;48.258;12.690;2023-07-13T03:48:36;4.97;;;3.03;;
19341;SDS011;9807;48.258;12.690;2023-07-13T03:51:05;5.67;;;3.30;;
19341;SDS011;9807;48.258;12.690;2023-07-13T03:53:30;9.03;;;5.00;;
19341;SDS011;9807;48.258;12.690;2023-07-13T03:55:56;12.07;;;5.07;;
19341;SDS011;9807;48.258;12.690;2023-07-13T03:58:28;12.00;;;5.37;;
19341;SDS011;9807;48.258;12.690;2023-07-13T04:01:00;9.00;;;4.10;;
19341;SDS011;9807;48.258;12.690;2023-07-13T04:03:28;13.40;;;5.60;;
19341;SDS011;9807;48.258;12.690;2023-07-13T04:05:55;12.53;;;5.33;;
19341;SDS011;9807;48.258;12.690;2023-07-13T04:08:28;9.43;;;5.50;;
19341;SDS011;9807;48.258;12.690;2023-07-13T04:10:55;18.40;;;5.80;;
19341;SDS011;9807;48.258;12.690;2023-07-13T04:13:21;14.37;;;6.20;;
19341;SDS011;9807;48.258;12.690;2023-07-13T04:15:47;12.43;;;5.80;;
19341;SDS011;9807;48.258;12.690;2023-07-13T04:18:13;12.73;;;5.90;;
19341;SDS011;9807;48.258;12.690;2023-07-13T04:20:39;18.33;;;5.83;;
19341;SDS011;9807;48.258;12.690;2023-07-13T04:23:05;13.77;;;5.60;;
19341;SDS011;9807;48.258;12.690;2023-07-13T04:25:31;10.00;;;5.37;;
19341;SDS011;9807;48.258;12.690;2023-07-13T04:27:56;13.27;;;5.30;;
19341;SDS011;9807;48.258;12.690;2023-07-13T04:30:26;15.43;;;4.93;;
19341;SDS011;9807;48.258;12.690;2023-07-13T04:32:52;14.13;;;4.80;;
19341;SDS011;9807;48.258;12.690;2023-07-13T04:35:19;16.37;;;4.93;;
19341;SDS011;9807;48.258;12.690;2023-07-13T04:37:49;21.07;;;4.50;;
19341;SDS011;9807;48.258;12.690;2023-07-13T04:40:15;12.17;;;4.47;;
19341;SDS011;9807;48.258;12.690;2023-07-13T04:42:45;10.53;;;4.80;;
19341;SDS011;9807;48.258;12.690;2023-07-13T04:45:17;11.83;;;3.87;;
19341;SDS011;9807;48.258;12.690;2023-07-13T04:47:43;14.03;;;4.23;;
19341;SDS011;9807;48.258;12.690;2023-07-13T04:50:12;9.47;;;4.20;;
19341;SDS011;9807;48.258;12.690;2023-07-13T04:52:40;9.27;;;4.10;;
19341;SDS011;9807;48.258;12.690;2023-07-13T04:55:07;11.03;;;3.97;;
19341;SDS011;9807;48.258;12.690;2023-07-13T04:57:33;13.97;;;4.13;;
19341;SDS011;9807;48.258;12.690;2023-07-13T04:59:59;13.50;;;4.10;;
19341;SDS011;9807;48.258;12.690;2023-07-13T05:02:26;10.97;;;4.20;;
19341;SDS011;9807;48.258;12.690;2023-07-13T05:04:53;9.20;;;4.13;;
19341;SDS011;9807;48.258;12.690;2023-07-13T05:07:19;9.90;;;4.10;;
19341;SDS011;9807;48.258;12.690;2023-07-13T05:09:44;14.03;;;3.77;;
19341;SDS011;9807;48.258;12.690;2023-07-13T05:12:10;9.67;;;3.80;;
19341;SDS011;9807;48.258;12.690;2023-07-13T05:14:35;7.87;;;3.67;;
19341;SDS011;9807;48.258;12.690;2023-07-13T05:17:02;8.80;;;3.73;;
19341;SDS011;9807;48.258;12.690;2023-07-13T05:19:27;14.77;;;4.30;;
19341;SDS011;9807;48.258;12.690;2023-07-13T05:21:53;10.13;;;4.13;;
19341;SDS011;9807;48.258;12.690;2023-07-13T05:24:19;10.10;;;4.17;;
19341;SDS011;9807;48.258;12.690;2023-07-13T05:26:45;8.30;;;4.33;;
19341;SDS011;9807;48.258;12.690;2023-07-13T05:29:10;12.00;;;4.53;;
19341;SDS011;9807;48.258;12.690;2023-07-13T05:31:36;11.30;;;4.20;;
19341;SDS011;9807;48.258;12.690;2023-07-13T05:34:03;9.57;;;4.33;;
19341;SDS011;9807;48.258;12.690;2023-07-13T05:36:28;10.53;;;4.23;;
19341;SDS011;9807;48.258;12.690;2023-07-13T05:38:54;6.20;;;4.23;;
19341;SDS011;9807;48.258;12.690;2023-07-13T05:41:19;8.37;;;4.40;;
19341;SDS011;9807;48.258;12.690;2023-07-13T05:43:45;9.47;;;4.67;;
19341;SDS011;9807;48.258;12.690;2023-07-13T05:46:11;6.07;;;4.50;;
19341;SDS011;9807;48.258;12.690;2023-07-13T05:48:36;14.33;;;4.90;;
19341;SDS011;9807;48.258;12.690;2023-07-13T05:51:03;9.77;;;4.73;;
19341;SDS011;9807;48.258;12.690;2023-07-13T05:53:29;8.43;;;4.63;;
19341;SDS011;9807;48.258;12.690;2023-07-13T05:55:54;11.27;;;4.70;;
19341;SDS011;9807;48.258;12.690;2023-07-13T05:58:21;9.53;;;5.10;;
19341;SDS011;9807;48.258;12.690;2023-07-13T06:00:47;13.57;;;5.10;;
19341;SDS011;9807;48.258;12.690;2023-07-13T06:03:24;8.03;;;4.67;;
19341;SDS011;9807;48.258;12.690;2023-07-13T06:05:49;9.90;;;4.87;;
19341;SDS011;9807;48.258;12.690;2023-07-13T06:08:15;8.80;;;4.70;;
19341;SDS011;9807;48.258;12.690;2023-07-13T06:10:41;9.57;;;4.60;;
19341;SDS011;9807;48.258;12.690;2023-07-13T06:13:06;9.97;;;4.50;;
19341;SDS011;9807;48.258;12.690;2023-07-13T06:15:33;7.17;;;4.73;;
19341;SDS011;9807;48.258;12.690;2023-07-13T06:17:58;7.80;;;4.70;;
19341;SDS011;9807;48.258;12.690;2023-07-13T06:20:24;9.47;;;4.83;;
19341;SDS011;9807;48.258;12.690;2023-07-13T06:22:50;8.77;;;4.30;;
19341;SDS011;9807;48.258;12.690;2023-07-13T06:25:15;9.20;;;4.27;;
19341;SDS011;9807;48.258;12.690;2023-07-13T06:27:42;7.27;;;4.50;;
19341;SDS011;9807;48.258;12.690;2023-07-13T06:30:08;8.77;;;4.70;;
19341;SDS011;9807;48.258;12.690;2023-07-13T06:32:35;8.50;;;4.23;;
19341;SDS011;9807;48.258;12.690;2023-07-13T06:35:01;12.30;;;4.57;;
19341;SDS011;9807;48.258;12.690;2023-07-13T06:37:28;10.37;;;4.23;;
19341;SDS011;9807;48.258;12.690;2023-07-13T06:39:55;10.80;;;4.20;;
19341;SDS011;9807;48.258;12.690;2023-07-13T06:42:23;6.40;;;4.27;;
19341;SDS011;9807;48.258;12.690;2023-07-13T06:44:48;15.20;;;4.10;;
19341;SDS011;9807;48.258;12.690;2023-07-13T06:47:14;9.57;;;4.20;;
19341;SDS011;9807;48.258;12.690;2023-07-13T06:49:40;9.13;;;4.47;;
19341;SDS011;9807;48.258;12.690;2023-07-13T06:52:06;7.23;;;4.13;;
19341;SDS011;9807;48.258;12.690;2023-07-13T06:54:31;7.63;;;4.07;;
19341;SDS011;9807;48.258;12.690;2023-07-13T06:57:00;6.33;;;4.23;;
19341;SDS011;9807;48.258;12.690;2023-07-13T06:59:26;7.57;;;4.07;;
19341;SDS011;9807;48.258;12.690;2023-07-13T07:01:52;6.80;;;4.37;;
19341;SDS011;9807;48.258;12.690;2023-07-13T07:04:18;6.20;;;4.60;;
19341;SDS011;9807;48.258;12.690;2023-07-13T07:06:43;6.93;;;4.47;;
19341;SDS011;9807;48.258;12.690;2023-07-13T07:09:10;10.73;;;4.47;;
19341;SDS011;9807;48.258;12.690;2023-07-13T07:11:36;7.67;;;4.53;;
19341;SDS011;9807;48.258;12.690;2023-07-13T07:14:01;7.50;;;4.30;;
19341;SDS011;9807;48.258;12.690;2023-07-13T07:16:27;7.23;;;4.00;;
19341;SDS011;9807;48.258;12.690;2023-07-13T07:18:53;8.60;;;4.57;;
19341;SDS011;9807;48.258;12.690;2023-07-13T07:21:18;10.33;;;4.43;;
19341;SDS011;9807;48.258;12.690;2023-07-13T07:23:44;6.30;;;4.30;;
19341;SDS011;9807;48.258;12.690;2023-07-13T07:26:11;6.53;;;3.97;;
19341;SDS011;9807;48.258;12.690;2023-07-13T07:28:39;4.80;;;4.23;;
19341;SDS011;9807;48.258;12.690;2023-07-13T07:31:05;9.60;;;4.60;;
19341;SDS011;9807;48.258;12.690;2023-07-13T07:33:31;8.43;;;4.57;;
19341;SDS011;9807;48.258;12.690;2023-07-13T07:35:59;6.07;;;4.30;;
19341;SDS011;9807;48.258;12.690;2023-07-13T07:38:24;6.43;;;4.03;;
19341;SDS011;9807;48.258;12.690;2023-07-13T07:40:50;5.87;;;4.07;;
19341;SDS011;9807;48.258;12.690;2023-07-13T07:43:17;7.80;;;4.83;;
19341;SDS011;9807;48.258;12.690;2023-07-13T07:45:44;6.83;;;4.40;;
19341;SDS011;9807;48.258;12.690;2023-07-13T07:48:10;11.73;;;4.30;;
19341;SDS011;9807;48.258;12.690;2023-07-13T07:50:36;6.80;;;4.50;;
19341;SDS011;9807;48.258;12.690;2023-07-13T07:53:03;12.17;;;4.47;;
19341;SDS011;9807;48.258;12.690;2023-07-13T07:55:32;6.07;;;3.97;;
19341;SDS011;9807;48.258;12.690;2023-07-13T07:58:00;5.33;;;3.83;;
19341;SDS011;9807;48.258;12.690;2023-07-13T08:00:26;7.33;;;3.80;;
19341;SDS011;9807;48.258;12.690;2023-07-13T08:02:56;8.17;;;3.90;;
19341;SDS011;9807;48.258;12.690;2023-07-13T08:05:22;7.33;;;4.43;;
19341;SDS011;9807;48.258;12.690;2023-07-13T08:07:47;6.47;;;3.73;;
19341;SDS011;9807;48.258;12.690;2023-07-13T08:10:13;8.93;;;3.97;;
19341;SDS011;9807;48.258;12.690;2023-07-13T08:12:39;4.67;;;3.80;;
19341;SDS011;9807;48.258;12.690;2023-07-13T08:15:06;10.00;;;4.10;;
19341;SDS011;9807;48.258;12.690;2023-07-13T08:17:35;7.60;;;3.93;;
19341;SDS011;9807;48.258;12.690;2023-07-13T08:20:01;7.40;;;3.63;;
19341;SDS011;9807;48.258;12.690;2023-07-13T08:22:27;11.50;;;4.03;;
19341;SDS011;9807;48.258;12.690;2023-07-13T08:24:53;9.67;;;4.50;;
19341;SDS011;9807;48.258;12.690;2023-07-13T08:27:22;6.67;;;3.80;;
19341;SDS011;9807;48.258;12.690;2023-07-13T08:29:49;7.63;;;3.83;;
19341;SDS011;9807;48.258;12.690;2023-07-13T08:32:15;7.47;;;3.63;;
19341;SDS011;9807;48.258;12.690;2023-07-13T08:34:41;7.37;;;3.67;;
19341;SDS011;9807;48.258;12.690;2023-07-13T08:37:08;6.07;;;3.43;;
19341;SDS011;9807;48.258;12.690;2023-07-13T08:39:34;7.57;;;3.53;;
19341;SDS011;9807;48.258;12.690;2023-07-13T08:42:35;8.47;;;3.70;;
19341;SDS011;9807;48.258;12.690;2023-07-13T08:45:12;8.60;;;3.30;;
19341;SDS011;9807;48.258;12.690;2023-07-13T08:47:39;8.40;;;3.20;;
19341;SDS011;9807;48.258;12.690;2023-07-13T08:50:13;6.43;;;3.70;;
19341;SDS011;9807;48.258;12.690;2023-07-13T08:52:42;4.37;;;3.30;;
19341;SDS011;9807;48.258;12.690;2023-07-13T08:55:17;9.60;;;3.97;;
19341;SDS011;9807;48.258;12.690;2023-07-13T08:57:48;7.60;;;3.40;;
19341;SDS011;9807;48.258;12.690;2023-07-13T09:00:31;6.43;;;3.37;;
19341;SDS011;9807;48.258;12.690;2023-07-13T09:03:02;5.53;;;3.43;;
19341;SDS011;9807;48.258;12.690;2023-07-13T09:05:34;8.57;;;3.37;;
19341;SDS011;9807;48.258;12.690;2023-07-13T09:09:06;7.20;;;3.37;;
19341;SDS011;9807;48.258;12.690;2023-07-13T09:14:17;6.67;;;3.40;;
19341;SDS011;9807;48.258;12.690;2023-07-13T09:17:03;6.17;;;3.37;;
19341;SDS011;9807;48.258;12.690;2023-07-13T09:19:35;6.10;;;3.23;;
19341;SDS011;9807;48.258;12.690;2023-07-13T09:22:02;7.80;;;2.83;;
19341;SDS011;9807;48.258;12.690;2023-07-13T09:24:49;8.47;;;4.03;;
19341;SDS011;9807;48.258;12.690;2023-07-13T09:27:30;6.20;;;3.60;;
19341;SDS011;9807;48.258;12.690;2023-07-13T09:30:05;4.37;;;3.20;;
19341;SDS011;9807;48.258;12.690;2023-07-13T09:32:39;7.93;;;3.83;;
19341;SDS011;9807;48.258;12.690;2023-07-13T09:35:12;5.73;;;3.90;;
19341;SDS011;9807;48.258;12.690;2023-07-13T09:37:40;8.23;;;3.80;;
19341;SDS011;9807;48.258;12.690;2023-07-13T09:40:11;5.73;;;3.60;;
19341;SDS011;9807;48.258;12.690;2023-07-13T09:42:51;7.87;;;3.60;;
19341;SDS011;9807;48.258;12.690;2023-07-13T09:45:26;5.87;;;3.80;;
19341;SDS011;9807;48.258;12.690;2023-07-13T09:48:04;8.87;;;3.87;;
19341;SDS011;9807;48.258;12.690;2023-07-13T09:50:34;6.60;;;3.90;;
19341;SDS011;9807;48.258;12.690;2023-07-13T09:53:00;7.70;;;3.57;;
19341;SDS011;9807;48.258;12.690;2023-07-13T09:55:30;13.00;;;3.77;;
19341;SDS011;9807;48.258;12.690;2023-07-13T09:57:56;9.07;;;3.60;;
19341;SDS011;9807;48.258;12.690;2023-07-13T10:00:28;5.20;;;3.33;;
19341;SDS011;9807;48.258;12.690;2023-07-13T10:03:37;9.27;;;3.60;;
19341;SDS011;9807;48.258;12.690;2023-07-13T10:05:47;7.90;;;3.50;;
19341;SDS011;9807;48.258;12.690;2023-07-13T10:08:25;6.97;;;3.37;;
19341;SDS011;9807;48.258;12.690;2023-07-13T10:11:08;7.43;;;3.60;;
19341;SDS011;9807;48.258;12.690;2023-07-13T10:13:50;5.67;;;3.50;;
19341;SDS011;9807;48.258;12.690;2023-07-13T10:16:25;12.07;;;3.70;;
19341;SDS011;9807;48.258;12.690;2023-07-13T10:27:34;13.47;;;2.67;;
19341;SDS011;9807;48.258;12.690;2023-07-13T10:29:54;6.03;;;2.57;;
19341;SDS011;9807;48.258;12.690;2023-07-13T10:32:30;9.40;;;2.40;;
19341;SDS011;9807;48.258;12.690;2023-07-13T10:34:55;4.53;;;2.70;;
19341;SDS011;9807;48.258;12.690;2023-07-13T10:37:26;5.23;;;2.33;;
19341;SDS011;9807;48.258;12.690;2023-07-13T10:39:56;6.20;;;2.07;;
19341;SDS011;9807;48.258;12.690;2023-07-13T10:42:39;9.57;;;2.57;;
19341;SDS011;9807;48.258;12.690;2023-07-13T10:45:20;7.20;;;2.50;;
19341;SDS011;9807;48.258;12.690;2023-07-13T10:47:47;9.43;;;2.43;;
19341;SDS011;9807;48.258;12.690;2023-07-13T10:50:21;5.20;;;2.60;;
19341;SDS011;9807;48.258;12.690;2023-07-13T10:52:52;4.50;;;2.50;;
19341;SDS011;9807;48.258;12.690;2023-07-13T10:55:33;6.53;;;2.40;;
19341;SDS011;9807;48.258;12.690;2023-07-13T10:58:02;8.53;;;2.60;;
19341;SDS011;9807;48.258;12.690;2023-07-13T11:00:50;6.30;;;2.70;;
19341;SDS011;9807;48.258;12.690;2023-07-13T11:03:20;6.53;;;2.60;;
19341;SDS011;9807;48.258;12.690;2023-07-13T11:05:51;6.17;;;2.80;;
19341;SDS011;9807;48.258;12.690;2023-07-13T11:08:50;11.17;;;2.87;;
19341;SDS011;9807;48.258;12.690;2023-07-13T11:11:35;5.70;;;2.37;;
19341;SDS011;9807;48.258;12.690;2023-07-13T11:15:00;10.57;;;2.73;;
19341;SDS011;9807;48.258;12.690;2023-07-13T11:16:52;4.67;;;2.73;;
19341;SDS011;9807;48.258;12.690;2023-07-13T11:27:43;5.03;;;2.67;;
19341;SDS011;9807;48.258;12.690;2023-07-13T11:35:33;4.53;;;2.83;;
19341;SDS011;9807;48.258;12.690;2023-07-13T11:38:02;4.10;;;2.50;;
19341;SDS011;9807;48.258;12.690;2023-07-13T11:40:35;6.80;;;2.80;;
19341;SDS011;9807;48.258;12.690;2023-07-13T11:43:01;6.07;;;2.57;;
19341;SDS011;9807;48.258;12.690;2023-07-13T11:45:32;6.07;;;2.60;;
19341;SDS011;9807;48.258;12.690;2023-07-13T11:47:58;4.67;;;2.60;;
19341;SDS011;9807;48.258;12.690;2023-07-13T11:50:26;6.00;;;2.50;;
19341;SDS011;9807;48.258;12.690;2023-07-13T11:52:52;5.63;;;2.60;;
19341;SDS011;9807;48.258;12.690;2023-07-13T11:55:21;6.90;;;2.83;;
19341;SDS011;9807;48.258;12.690;2023-07-13T11:57:50;8.23;;;2.97;;
19341;SDS011;9807;48.258;12.690;2023-07-13T12:00:22;7.73;;;2.77;;
19341;SDS011;9807;48.258;12.690;2023-07-13T12:02:52;4.60;;;2.30;;
19341;SDS011;9807;48.258;12.690;2023-07-13T12:05:21;13.07;;;2.50;;
19341;SDS011;9807;48.258;12.690;2023-07-13T12:07:47;3.20;;;2.10;;
19341;SDS011;9807;48.258;12.690;2023-07-13T12:10:21;7.13;;;2.30;;
19341;SDS011;9807;48.258;12.690;2023-07-13T12:18:14;5.07;;;1.80;;
19341;SDS011;9807;48.258;12.690;2023-07-13T12:20:44;3.03;;;1.47;;
19341;SDS011;9807;48.258;12.690;2023-07-13T12:23:32;3.23;;;1.40;;
19341;SDS011;9807;48.258;12.690;2023-07-13T12:25:59;3.40;;;1.60;;
19341;SDS011;9807;48.258;12.690;2023-07-13T12:28:36;9.27;;;1.83;;
19341;SDS011;9807;48.258;12.690;2023-07-13T12:31:22;5.10;;;1.80;;
19341;SDS011;9807;48.258;12.690;2023-07-13T12:33:58;2.67;;;1.60;;
19341;SDS011;9807;48.258;12.690;2023-07-13T12:36:26;4.73;;;1.57;;
19341;SDS011;9807;48.258;12.690;2023-07-13T12:38:54;3.67;;;1.70;;
19341;SDS011;9807;48.258;12.690;2023-07-13T12:41:21;6.50;;;1.53;;
19341;SDS011;9807;48.258;12.690;2023-07-13T12:43:48;3.17;;;1.63;;
19341;SDS011;9807;48.258;12.690;2023-07-13T12:46:19;6.20;;;1.80;;
19341;SDS011;9807;48.258;12.690;2023-07-13T12:48:50;5.93;;;1.70;;
19341;SDS011;9807;48.258;12.690;2023-07-13T12:51:20;3.23;;;1.53;;
19341;SDS011;9807;48.258;12.690;2023-07-13T12:53:48;4.90;;;1.50;;
19341;SDS011;9807;48.258;12.690;2023-07-13T12:56:22;7.83;;;1.83;;
19341;SDS011;9807;48.258;12.690;2023-07-13T12:58:50;4.00;;;1.80;;
19341;SDS011;9807;48.258;12.690;2023-07-13T13:01:25;4.63;;;1.70;;
19341;SDS011;9807;48.258;12.690;2023-07-13T13:03:53;5.40;;;1.90;;
19341;SDS011;9807;48.258;12.690;2023-07-13T13:06:27;6.50;;;1.90;;
19341;SDS011;9807;48.258;12.690;2023-07-13T13:08:56;5.70;;;1.90;;
19341;SDS011;9807;48.258;12.690;2023-07-13T13:11:25;4.60;;;1.73;;
19341;SDS011;9807;48.258;12.690;2023-07-13T13:13:51;7.60;;;1.87;;
19341;SDS011;9807;48.258;12.690;2023-07-13T13:16:31;4.03;;;1.80;;
19341;SDS011;9807;48.258;12.690;2023-07-13T13:19:10;6.33;;;1.70;;
19341;SDS011;9807;48.258;12.690;2023-07-13T13:21:46;5.20;;;2.00;;
19341;SDS011;9807;48.258;12.690;2023-07-13T13:24:13;5.97;;;1.87;;
19341;SDS011;9807;48.258;12.690;2023-07-13T13:26:41;3.37;;;1.73;;
19341;SDS011;9807;48.258;12.690;2023-07-13T13:29:12;5.93;;;1.60;;
19341;SDS011;9807;48.258;12.690;2023-07-13T13:31:42;5.43;;;1.90;;
19341;SDS011;9807;48.258;12.690;2023-07-13T13:34:12;11.13;;;1.97;;
19341;SDS011;9807;48.258;12.690;2023-07-13T13:36:41;11.33;;;1.90;;
19341;SDS011;9807;48.258;12.690;2023-07-13T13:41:46;4.93;;;1.80;;
19341;SDS011;9807;48.258;12.690;2023-07-13T13:44:14;4.07;;;1.80;;
19341;SDS011;9807;48.258;12.690;2023-07-13T13:46:40;4.70;;;1.70;;
19341;SDS011;9807;48.258;12.690;2023-07-13T13:49:13;6.93;;;2.00;;
19341;SDS011;9807;48.258;12.690;2023-07-13T13:51:41;6.93;;;1.90;;
19341;SDS011;9807;48.258;12.690;2023-07-13T13:54:11;3.83;;;2.10;;
19341;SDS011;9807;48.258;12.690;2023-07-13T13:56:44;5.20;;;1.87;;
19341;SDS011;9807;48.258;12.690;2023-07-13T13:59:12;5.90;;;1.80;;
19341;SDS011;9807;48.258;12.690;2023-07-13T14:01:39;4.10;;;2.00;;
19341;SDS011;9807;48.258;12.690;2023-07-13T14:04:18;4.07;;;1.80;;
19341;SDS011;9807;48.258;12.690;2023-07-13T14:06:46;8.03;;;2.00;;
19341;SDS011;9807;48.258;12.690;2023-07-13T14:09:13;7.80;;;2.13;;
19341;SDS011;9807;48.258;12.690;2023-07-13T14:11:40;3.43;;;1.80;;
19341;SDS011;9807;48.258;12.690;2023-07-13T14:14:09;3.80;;;1.77;;
19341;SDS011;9807;48.258;12.690;2023-07-13T14:16:40;3.63;;;1.60;;
19341;SDS011;9807;48.258;12.690;2023-07-13T14:19:09;4.93;;;1.67;;
19341;SDS011;9807;48.258;12.690;2023-07-13T14:21:37;8.40;;;1.87;;
19341;SDS011;9807;48.258;12.690;2023-07-13T14:24:03;4.47;;;1.70;;
19341;SDS011;9807;48.258;12.690;2023-07-13T14:26:29;3.30;;;2.10;;
19341;SDS011;9807;48.258;12.690;2023-07-13T14:29:00;5.30;;;2.00;;
19341;SDS011;9807;48.258;12.690;2023-07-13T14:31:26;4.10;;;1.77;;
19341;SDS011;9807;48.258;12.690;2023-07-13T14:33:55;7.57;;;1.90;;
19341;SDS011;9807;48.258;12.690;2023-07-13T14:36:23;5.37;;;2.00;;
19341;SDS011;9807;48.258;12.690;2023-07-13T14:38:55;5.50;;;1.90;;
19341;SDS011;9807;48.258;12.690;2023-07-13T14:41:22;3.77;;;1.77;;
19341;SDS011;9807;48.258;12.690;2023-07-13T14:43:48;7.60;;;1.83;;
19341;SDS011;9807;48.258;12.690;2023-07-13T14:48:59;4.43;;;1.73;;
19341;SDS011;9807;48.258;12.690;2023-07-13T14:51:28;5.07;;;2.10;;
19341;SDS011;9807;48.258;12.690;2023-07-13T14:53:55;3.10;;;1.70;;
19341;SDS011;9807;48.258;12.690;2023-07-13T14:56:21;2.83;;;1.90;;
19341;SDS011;9807;48.258;12.690;2023-07-13T14:58:47;3.60;;;1.80;;
19341;SDS011;9807;48.258;12.690;2023-07-13T15:01:13;6.10;;;2.03;;
19341;SDS011;9807;48.258;12.690;2023-07-13T15:03:41;4.17;;;1.73;;
19341;SDS011;9807;48.258;12.690;2023-07-13T15:06:11;3.10;;;2.30;;
19341;SDS011;9807;48.258;12.690;2023-07-13T15:08:38;7.27;;;2.43;;
19341;SDS011;9807;48.258;12.690;2023-07-13T15:11:08;2.77;;;2.00;;
19341;SDS011;9807;48.258;12.690;2023-07-13T15:13:40;4.87;;;2.10;;
19341;SDS011;9807;48.258;12.690;2023-07-13T15:16:13;2.93;;;2.00;;
19341;SDS011;9807;48.258;12.690;2023-07-13T15:21:53;8.83;;;2.50;;
19341;SDS011;9807;48.258;12.690;2023-07-13T15:24:23;4.03;;;1.97;;
19341;SDS011;9807;48.258;12.690;2023-07-13T15:26:49;4.30;;;1.83;;
19341;SDS011;9807;48.258;12.690;2023-07-13T15:29:16;5.37;;;2.00;;
19341;SDS011;9807;48.258;12.690;2023-07-13T15:31:42;4.40;;;2.20;;
19341;SDS011;9807;48.258;12.690;2023-07-13T15:34:15;3.47;;;2.00;;